Time,TemperatureF,DewpointF,PressureIn,WindDirection,WindDirectionDegrees,WindSpeedMPH,WindSpeedGustMPH,Humidity,HourlyPrecipIn,Conditions,Clouds,dailyrainin,SoftwareType,DateUTC
2013-01-12 00:03:00,44.0,44.0,-100.00,East,80,5.0,8.0,99,0.00,,,0.00,,2013-01-12 05:03:00,
2013-01-12 00:12:00,44.0,44.0,-100.00,East,80,5.0,8.0,99,0.00,,,0.00,,2013-01-12 05:12:00,
2013-01-12 00:22:00,44.0,44.0,-100.00,East,80,3.0,10.0,99,0.00,,,0.00,,2013-01-12 05:22:00,
2013-01-12 00:32:00,45.0,44.0,-100.00,ENE,70,4.0,8.0,99,0.00,,,0.00,,2013-01-12 05:32:00,
2013-01-12 00:42:00,45.0,44.0,-100.00,ENE,70,4.0,8.0,99,0.00,,,0.00,,2013-01-12 05:42:00,
2013-01-12 00:53:00,45.0,45.0,-100.00,ENE,70,0.0,3.0,99,0.00,,,0.00,,2013-01-12 05:53:00,
2013-01-12 01:00:00,45.0,45.0,-100.00,ESE,115,0.0,0.0,99,0.00,,,0.00,,2013-01-12 06:00:00,
2013-01-12 01:03:00,45.0,45.0,-100.00,ENE,70,0.0,3.0,99,0.00,,,0.00,,2013-01-12 06:03:00,
2013-01-12 01:12:00,45.0,45.0,-100.00,ENE,70,0.0,3.0,99,0.00,,,0.00,,2013-01-12 06:12:00,
2013-01-12 01:22:00,45.0,45.0,-100.00,East,85,0.0,2.0,99,0.00,,,0.00,,2013-01-12 06:22:00,
2013-01-12 01:33:00,45.0,45.0,-100.00,ESE,115,0.0,0.0,99,0.00,,,0.00,,2013-01-12 06:33:00,
2013-01-12 01:43:00,45.0,45.0,-100.00,ESE,115,0.0,0.0,99,0.00,,,0.00,,2013-01-12 06:43:00,
2013-01-12 01:53:00,45.0,45.0,-100.00,ESE,115,0.0,0.0,99,0.00,,,0.00,,2013-01-12 06:53:00,
2013-01-12 04:12:00,53.0,53.0,-100.00,NNE,30,0.0,5.0,99,0.00,,,0.00,,2013-01-12 09:12:00,
2013-01-12 04:20:00,54.0,54.0,-100.00,NNE,25,0.0,5.0,99,0.00,,,0.00,,2013-01-12 09:20:00,
2013-01-12 04:22:00,53.0,53.0,-100.00,NNE,30,0.0,5.0,99,0.00,,,0.00,,2013-01-12 09:22:00,
2013-01-12 04:32:00,54.0,53.0,-100.00,NE,40,0.0,6.0,99,0.00,,,0.00,,2013-01-12 09:32:00,
2013-01-12 04:42:00,54.0,53.0,-100.00,NE,40,0.0,6.0,99,0.00,,,0.00,,2013-01-12 09:42:00,
2013-01-12 04:53:00,54.0,54.0,-100.00,NNE,25,0.0,5.0,99,0.00,,,0.00,,2013-01-12 09:53:00,
2013-01-12 05:02:00,54.0,54.0,-100.00,NNE,25,0.0,5.0,99,0.00,,,0.00,,2013-01-12 10:02:00,
2013-01-12 05:12:00,54.0,54.0,-100.00,NNE,25,0.0,5.0,99,0.00,,,0.00,,2013-01-12 10:12:00,
2013-01-12 05:32:00,57.0,52.0,-100.00,NE,45,0.0,5.0,84,0.00,,,0.00,,2013-01-12 10:32:00,
2013-01-12 05:43:00,57.0,52.0,-100.00,NE,45,0.0,5.0,84,0.00,,,0.00,,2013-01-12 10:43:00,
2013-01-12 05:52:00,55.0,52.0,-100.00,East,80,0.0,2.0,88,0.00,,,0.00,,2013-01-12 10:52:00,
2013-01-12 06:02:00,55.0,52.0,-100.00,East,80,0.0,2.0,88,0.00,,,0.00,,2013-01-12 11:02:00,
2013-01-12 06:12:00,54.0,52.0,-100.00,East,80,0.0,2.0,92,0.00,,,0.00,,2013-01-12 11:12:00,
2013-01-12 06:22:00,54.0,52.0,-100.00,East,80,0.0,2.0,92,0.00,,,0.00,,2013-01-12 11:22:00,
2013-01-12 06:33:00,54.0,52.0,-100.00,East,80,0.0,2.0,92,0.00,,,0.00,,2013-01-12 11:33:00,
2013-01-12 06:42:00,55.0,52.0,-100.00,NE,50,0.0,5.0,92,0.00,,,0.00,,2013-01-12 11:42:00,
2013-01-12 06:53:00,56.0,52.0,-100.00,ENE,65,0.0,5.0,88,0.00,,,0.00,,2013-01-12 11:53:00,
2013-01-12 07:03:00,56.0,52.0,-100.00,ENE,65,0.0,5.0,88,0.00,,,0.00,,2013-01-12 12:03:00,
2013-01-12 07:12:00,56.0,52.0,-100.00,ENE,65,0.0,5.0,88,0.00,,,0.00,,2013-01-12 12:12:00,
2013-01-12 07:22:00,56.0,52.0,-100.00,ENE,60,2.0,10.0,86,0.00,,,0.00,,2013-01-12 12:22:00,
2013-01-12 07:33:00,57.0,52.0,-100.00,ENE,65,1.0,8.0,86,0.00,,,0.00,,2013-01-12 12:33:00,
2013-01-12 07:43:00,57.0,52.0,-100.00,ENE,65,1.0,8.0,86,0.00,,,0.00,,2013-01-12 12:43:00,
2013-01-12 07:53:00,58.0,53.0,-100.00,East,80,0.0,10.0,83,0.00,,,0.00,,2013-01-12 12:53:00,
2013-01-12 08:02:00,58.0,53.0,-100.00,East,80,0.0,10.0,83,0.00,,,0.00,,2013-01-12 13:02:00,
2013-01-12 08:12:00,58.0,53.0,-100.00,East,80,0.0,10.0,83,0.00,,,0.00,,2013-01-12 13:12:00,
2013-01-12 08:23:00,58.0,52.0,-100.00,ENE,70,0.0,8.0,81,0.00,,,0.00,,2013-01-12 13:23:00,
2013-01-12 08:33:00,57.0,52.0,-100.00,NE,50,0.0,0.0,83,0.00,,,0.00,,2013-01-12 13:33:00,
2013-01-12 08:43:00,57.0,52.0,-100.00,NE,50,0.0,0.0,83,0.00,,,0.00,,2013-01-12 13:43:00,
2013-01-12 08:53:00,60.0,51.0,-100.00,ESE,115,0.0,6.0,74,0.00,,,0.00,,2013-01-12 13:53:00,
2013-01-12 09:02:00,60.0,51.0,-100.00,ESE,115,0.0,6.0,74,0.00,,,0.00,,2013-01-12 14:02:00,
2013-01-12 09:12:00,60.0,51.0,-100.00,ESE,115,0.0,6.0,74,0.00,,,0.00,,2013-01-12 14:12:00,
2013-01-12 09:22:00,61.0,51.0,-100.00,East,85,0.0,8.0,68,0.00,,,0.00,,2013-01-12 14:22:00,
2013-01-12 09:33:00,62.0,51.0,-100.00,NE,35,0.0,3.0,66,0.00,,,0.00,,2013-01-12 14:33:00,
2013-01-12 09:43:00,62.0,51.0,-100.00,NE,35,0.0,3.0,66,0.00,,,0.00,,2013-01-12 14:43:00,
2013-01-12 09:53:00,63.0,50.0,-100.00,North,10,0.0,0.0,64,0.00,,,0.00,,2013-01-12 14:53:00,
2013-01-12 10:00:00,64.0,51.0,-100.00,East,80,0.0,0.0,61,0.00,,,0.00,,2013-01-12 15:00:00,
2013-01-12 10:03:00,63.0,50.0,-100.00,North,10,0.0,0.0,64,0.00,,,0.00,,2013-01-12 15:03:00,
2013-01-12 10:13:00,63.0,50.0,-100.00,North,10,0.0,0.0,64,0.00,,,0.00,,2013-01-12 15:13:00,
2013-01-12 10:23:00,64.0,50.0,-100.00,NE,55,0.0,0.0,61,0.00,,,0.00,,2013-01-12 15:23:00,
2013-01-12 10:33:00,64.0,50.0,-100.00,NE,55,0.0,0.0,61,0.00,,,0.00,,2013-01-12 15:33:00,
2013-01-12 10:43:00,64.0,51.0,-100.00,East,80,0.0,0.0,61,0.00,,,0.00,,2013-01-12 15:43:00,
2013-01-12 10:53:00,64.0,51.0,-100.00,East,80,0.0,0.0,61,0.00,,,0.00,,2013-01-12 15:53:00,
2013-01-12 11:13:00,66.0,50.0,-100.00,WNW,290,0.0,0.0,56,0.00,,,0.00,,2013-01-12 16:13:00,
2013-01-12 11:23:00,67.0,50.0,-100.00,East,80,0.0,5.0,54,0.00,,,0.00,,2013-01-12 16:23:00,
2013-01-12 11:33:00,68.0,50.0,-100.00,SSE,155,0.0,10.0,53,0.00,,,0.00,,2013-01-12 16:33:00,
2013-01-12 11:43:00,68.0,50.0,-100.00,SSE,155,0.0,10.0,53,0.00,,,0.00,,2013-01-12 16:43:00,
2013-01-12 11:53:00,68.0,50.0,-100.00,SSE,155,0.0,10.0,53,0.00,,,0.00,,2013-01-12 16:53:00,
2013-01-12 12:02:00,68.0,49.0,-100.00,ENE,65,0.0,6.0,52,0.00,,,0.00,,2013-01-12 17:02:00,
2013-01-12 12:13:00,68.0,49.0,-100.00,ENE,65,0.0,6.0,52,0.00,,,0.00,,2013-01-12 17:13:00,
2013-01-12 12:23:00,68.0,49.0,-100.00,ESE,115,0.0,2.0,51,0.00,,,0.00,,2013-01-12 17:23:00,
2013-01-12 12:33:00,68.0,49.0,-100.00,ESE,115,0.0,2.0,51,0.00,,,0.00,,2013-01-12 17:33:00,
2013-01-12 12:43:00,69.0,50.0,-100.00,SE,130,0.0,5.0,51,0.00,,,0.00,,2013-01-12 17:43:00,
2013-01-12 12:53:00,69.0,50.0,-100.00,SE,130,0.0,5.0,51,0.00,,,0.00,,2013-01-12 17:53:00,
2013-01-12 13:03:00,66.0,49.0,-100.00,WNW,290,0.0,3.0,53,0.00,,,0.00,,2013-01-12 18:03:00,
2013-01-12 13:12:00,66.0,49.0,-100.00,WNW,290,0.0,3.0,53,0.00,,,0.00,,2013-01-12 18:12:00,
2013-01-12 13:23:00,65.0,48.0,-100.00,West,270,0.0,5.0,55,0.00,,,0.00,,2013-01-12 18:23:00,
2013-01-12 13:33:00,65.0,48.0,-100.00,West,270,0.0,5.0,55,0.00,,,0.00,,2013-01-12 18:33:00,
2013-01-12 13:43:00,64.0,49.0,-100.00,West,265,4.0,8.0,58,0.00,,,0.00,,2013-01-12 18:43:00,
2013-01-12 13:53:00,64.0,49.0,-100.00,West,265,4.0,8.0,58,0.00,,,0.00,,2013-01-12 18:53:00,
2013-01-12 14:03:00,63.0,48.0,-100.00,West,260,0.0,8.0,59,0.00,,,0.00,,2013-01-12 19:03:00,
2013-01-12 14:12:00,63.0,48.0,-100.00,West,260,0.0,8.0,59,0.00,,,0.00,,2013-01-12 19:12:00,
2013-01-12 14:23:00,61.0,47.0,-100.00,West,270,3.0,8.0,62,0.00,,,0.00,,2013-01-12 19:23:00,
2013-01-12 14:33:00,61.0,47.0,-100.00,West,270,3.0,8.0,62,0.00,,,0.00,,2013-01-12 19:33:00,
2013-01-12 14:43:00,60.0,47.0,-100.00,West,260,1.0,8.0,64,0.00,,,0.00,,2013-01-12 19:43:00,
2013-01-12 14:53:00,60.0,47.0,-100.00,West,260,1.0,8.0,64,0.00,,,0.00,,2013-01-12 19:53:00,
2013-01-12 15:03:00,61.0,48.0,-100.00,West,265,4.0,13.0,63,0.00,,,0.00,,2013-01-12 20:03:00,
2013-01-12 15:13:00,61.0,48.0,-100.00,West,265,4.0,13.0,63,0.00,,,0.00,,2013-01-12 20:13:00,
2013-01-12 15:22:00,61.0,48.0,-100.00,West,265,10.0,13.0,63,0.00,,,0.00,,2013-01-12 20:22:00,
2013-01-12 15:33:00,61.0,48.0,-100.00,West,265,10.0,13.0,63,0.00,,,0.00,,2013-01-12 20:33:00,
2013-01-12 15:43:00,61.0,48.0,-100.00,West,265,8.0,13.0,63,0.00,,,0.00,,2013-01-12 20:43:00,
2013-01-12 15:53:00,61.0,48.0,-100.00,West,265,8.0,13.0,63,0.00,,,0.00,,2013-01-12 20:53:00,
2013-01-12 16:03:00,61.0,48.0,-100.00,West,270,6.0,10.0,64,0.00,,,0.00,,2013-01-12 21:03:00,
2013-01-12 16:12:00,61.0,48.0,-100.00,West,270,6.0,10.0,64,0.00,,,0.00,,2013-01-12 21:12:00,
2013-01-12 16:22:00,60.0,48.0,-100.00,West,265,9.0,11.0,65,0.00,,,0.00,,2013-01-12 21:22:00,
2013-01-12 16:33:00,60.0,48.0,-100.00,West,265,9.0,11.0,65,0.00,,,0.00,,2013-01-12 21:33:00,
2013-01-12 16:43:00,60.0,48.0,-100.00,West,260,1.0,10.0,66,0.00,,,0.00,,2013-01-12 21:43:00,
2013-01-12 16:53:00,60.0,48.0,-100.00,West,260,1.0,10.0,66,0.00,,,0.00,,2013-01-12 21:53:00,
2013-01-12 17:03:00,59.0,48.0,-100.00,West,275,0.0,6.0,67,0.00,,,0.00,,2013-01-12 22:03:00,
2013-01-12 17:12:00,59.0,48.0,-100.00,West,275,0.0,6.0,67,0.00,,,0.00,,2013-01-12 22:12:00,
2013-01-12 17:23:00,59.0,48.0,-100.00,West,280,2.0,8.0,68,0.00,,,0.00,,2013-01-12 22:23:00,
2013-01-12 17:33:00,59.0,48.0,-100.00,West,280,2.0,8.0,68,0.00,,,0.00,,2013-01-12 22:33:00,
2013-01-12 17:43:00,58.0,48.0,-100.00,West,275,0.0,5.0,69,0.00,,,0.00,,2013-01-12 22:43:00,
2013-01-12 17:53:00,58.0,48.0,-100.00,West,275,0.0,5.0,69,0.00,,,0.00,,2013-01-12 22:53:00,
2013-01-12 18:03:00,58.0,48.0,-100.00,West,270,0.0,8.0,71,0.00,,,0.00,,2013-01-12 23:03:00,
2013-01-12 18:13:00,58.0,48.0,-100.00,West,270,0.0,8.0,71,0.00,,,0.00,,2013-01-12 23:13:00,
2013-01-12 18:23:00,57.0,48.0,-100.00,West,260,2.0,6.0,72,0.00,,,0.00,,2013-01-12 23:23:00,
2013-01-12 18:33:00,57.0,48.0,-100.00,West,260,2.0,6.0,72,0.00,,,0.00,,2013-01-12 23:33:00,
2013-01-12 18:43:00,55.0,48.0,-100.00,West,265,8.0,11.0,75,0.00,,,0.00,,2013-01-12 23:43:00,
2013-01-12 18:53:00,55.0,48.0,-100.00,West,265,8.0,11.0,75,0.00,,,0.00,,2013-01-12 23:53:00,
2013-01-12 19:03:00,57.0,49.0,-100.00,West,270,9.0,10.0,75,0.00,,,0.00,,2013-01-13 00:03:00,
2013-01-12 19:12:00,57.0,49.0,-100.00,West,270,9.0,10.0,75,0.00,,,0.00,,2013-01-13 00:12:00,
2013-01-12 19:23:00,56.0,49.0,-100.00,West,270,3.0,8.0,78,0.00,,,0.00,,2013-01-13 00:23:00,
2013-01-12 19:33:00,56.0,49.0,-100.00,West,270,3.0,8.0,78,0.00,,,0.00,,2013-01-13 00:33:00,
2013-01-12 19:43:00,55.0,49.0,-100.00,West,265,10.0,13.0,79,0.00,,,0.00,,2013-01-13 00:43:00,
2013-01-12 19:53:00,55.0,49.0,-100.00,West,265,10.0,13.0,79,0.00,,,0.00,,2013-01-13 00:53:00,
2013-01-12 20:03:00,56.0,49.0,-100.00,West,270,10.0,11.0,80,0.00,,,0.00,,2013-01-13 01:03:00,
2013-01-12 20:12:00,56.0,49.0,-100.00,West,270,10.0,11.0,80,0.00,,,0.00,,2013-01-13 01:12:00,
2013-01-12 20:23:00,54.0,49.0,-100.00,West,270,11.0,13.0,83,0.00,,,0.00,,2013-01-13 01:23:00,
2013-01-12 20:33:00,54.0,49.0,-100.00,West,270,11.0,13.0,83,0.00,,,0.00,,2013-01-13 01:33:00,
2013-01-12 20:43:00,53.0,49.0,-100.00,West,270,13.0,15.0,85,0.00,,,0.00,,2013-01-13 01:43:00,
2013-01-12 20:53:00,53.0,49.0,-100.00,West,270,13.0,15.0,85,0.00,,,0.00,,2013-01-13 01:53:00,
2013-01-12 21:03:00,53.0,49.0,-100.00,West,260,11.0,15.0,87,0.00,,,0.00,,2013-01-13 02:03:00,
2013-01-12 21:13:00,53.0,49.0,-100.00,West,260,11.0,15.0,87,0.00,,,0.00,,2013-01-13 02:13:00,
2013-01-12 21:23:00,52.0,48.0,-100.00,West,265,10.0,15.0,89,0.00,,,0.00,,2013-01-13 02:23:00,
2013-01-12 21:33:00,52.0,48.0,-100.00,West,265,10.0,15.0,89,0.00,,,0.00,,2013-01-13 02:33:00,
2013-01-12 21:43:00,52.0,49.0,-100.00,West,265,11.0,15.0,88,0.00,,,0.00,,2013-01-13 02:43:00,
2013-01-12 21:53:00,52.0,49.0,-100.00,West,260,12.0,15.0,90,0.00,,,0.00,,2013-01-13 02:53:00,
2013-01-12 22:03:00,52.0,49.0,-100.00,West,260,12.0,15.0,90,0.00,,,0.00,,2013-01-13 03:03:00,
2013-01-12 22:12:00,52.0,49.0,-100.00,West,260,12.0,15.0,90,0.00,,,0.00,,2013-01-13 03:12:00,
2013-01-12 22:22:00,51.0,49.0,-100.00,WSW,250,10.0,15.0,95,0.00,,,0.00,,2013-01-13 03:22:00,
2013-01-12 22:33:00,51.0,49.0,-100.00,WSW,250,10.0,15.0,95,0.00,,,0.00,,2013-01-13 03:33:00,
2013-01-12 22:43:00,51.0,49.0,-100.00,WSW,250,9.0,15.0,94,0.00,,,0.00,,2013-01-13 03:43:00,
2013-01-12 22:53:00,51.0,49.0,-100.00,WSW,250,9.0,15.0,94,0.00,,,0.00,,2013-01-13 03:53:00,
2013-01-12 23:03:00,50.0,50.0,-100.00,WSW,250,9.0,15.0,98,0.00,,,0.00,,2013-01-13 04:03:00,
2013-01-12 23:12:00,50.0,50.0,-100.00,WSW,250,9.0,15.0,98,0.00,,,0.00,,2013-01-13 04:12:00,
2013-01-12 23:22:00,52.0,52.0,-100.00,West,265,12.0,15.0,99,0.00,,,0.00,,2013-01-13 04:22:00,
2013-01-12 23:33:00,52.0,52.0,-100.00,West,265,12.0,15.0,99,0.00,,,0.00,,2013-01-13 04:33:00,
2013-01-12 23:40:00,46.0,46.0,-100.00,West,260,11.0,16.0,99,0.00,,,0.00,,2013-01-13 04:40:00,
2013-01-12 23:43:00,52.0,51.0,-100.00,West,265,10.0,13.0,99,0.00,,,0.00,,2013-01-13 04:43:00,
2013-01-12 23:53:00,52.0,51.0,-100.00,West,265,10.0,13.0,99,0.00,,,0.00,,2013-01-13 04:53:00,